sensor_id;sensor_type;location;lat;lon;timestamp;pressure;altitude;pressure_sealevel;temperature;humidity
15193;BME280;7697;51.630;7.484;2023-10-09T00:00:00;-17541.84;;;14.02;97.95
15193;BME280;7697;51.630;7.484;2023-10-09T00:05:21;-17539.66;;;13.96;97.74
15193;BME280;7697;51.630;7.484;2023-10-09T00:10:38;-17536.81;;;13.87;97.63
15193;BME280;7697;51.630;7.484;2023-10-09T00:15:50;-17536.47;;;13.86;97.45
15193;BME280;7697;51.630;7.484;2023-10-09T00:20:53;-17536.16;;;13.85;98.05
15193;BME280;7697;51.630;7.484;2023-10-09T00:25:55;-17535.47;;;13.83;97.66
15193;BME280;7697;51.630;7.484;2023-10-09T00:31:10;-17534.63;;;13.80;97.41
15193;BME280;7697;51.630;7.484;2023-10-09T00:36:15;-17532.13;;;13.73;98.10
15193;BME280;7697;51.630;7.484;2023-10-09T00:41:20;-17531.78;;;13.72;98.32
15193;BME280;7697;51.630;7.484;2023-10-09T00:46:24;-17532.44;;;13.74;98.17
15193;BME280;7697;51.630;7.484;2023-10-09T00:51:28;-17530.44;;;13.68;99.03
15193;BME280;7697;51.630;7.484;2023-10-09T00:56:35;-17533.13;;;13.76;99.46
15193;BME280;7697;51.630;7.484;2023-10-09T01:01:43;-17530.59;;;13.68;99.25
15193;BME280;7697;51.630;7.484;2023-10-09T01:06:57;-17531.44;;;13.71;99.72
15193;BME280;7697;51.630;7.484;2023-10-09T01:12:15;-17535.47;;;13.83;99.88
15193;BME280;7697;51.630;7.484;2023-10-09T01:17:19;-17538.81;;;13.93;100.00
15193;BME280;7697;51.630;7.484;2023-10-09T01:22:35;-17541.19;;;14.00;100.00
15193;BME280;7697;51.630;7.484;2023-10-09T01:27:38;-17546.88;;;14.17;100.00
15193;BME280;7697;51.630;7.484;2023-10-09T01:32:40;-17550.06;;;14.27;100.00
15193;BME280;7697;51.630;7.484;2023-10-09T01:37:44;-17553.25;;;14.37;100.00
15193;BME280;7697;51.630;7.484;2023-10-09T01:42:51;-17556.13;;;14.45;100.00
15193;BME280;7697;51.630;7.484;2023-10-09T01:47:53;-17557.97;;;14.51;100.00
15193;BME280;7697;51.630;7.484;2023-10-09T01:52:55;-17560.47;;;14.58;100.00
15193;BME280;7697;51.630;7.484;2023-10-09T01:58:03;-17564.16;;;14.70;100.00
15193;BME280;7697;51.630;7.484;2023-10-09T02:03:06;-17565.34;;;14.73;100.00
15193;BME280;7697;51.630;7.484;2023-10-09T02:08:13;-17565.00;;;14.72;100.00
15193;BME280;7697;51.630;7.484;2023-10-09T02:13:18;-17567.88;;;14.81;100.00
15193;BME280;7697;51.630;7.484;2023-10-09T02:18:29;-17568.88;;;14.84;100.00
15193;BME280;7697;51.630;7.484;2023-10-09T02:23:53;-17573.06;;;14.96;100.00
15193;BME280;7697;51.630;7.484;2023-10-09T02:28:58;-17576.09;;;15.06;100.00
15193;BME280;7697;51.630;7.484;2023-10-09T02:34:04;-17579.44;;;15.16;100.00
15193;BME280;7697;51.630;7.484;2023-10-09T02:39:06;-17581.44;;;15.22;100.00
15193;BME280;7697;51.630;7.484;2023-10-09T02:44:24;-17585.81;;;15.35;100.00
15193;BME280;7697;51.630;7.484;2023-10-09T02:49:26;-17589.00;;;15.45;100.00
15193;BME280;7697;51.630;7.484;2023-10-09T02:54:29;-17593.88;;;15.59;100.00
15193;BME280;7697;51.630;7.484;2023-10-09T02:59:37;-17597.91;;;15.71;100.00
15193;BME280;7697;51.630;7.484;2023-10-09T03:04:41;-17598.56;;;15.73;100.00
15193;BME280;7697;51.630;7.484;2023-10-09T03:09:43;-17601.25;;;15.82;100.00
15193;BME280;7697;51.630;7.484;2023-10-09T03:14:46;-17603.59;;;15.89;100.00
15193;BME280;7697;51.630;7.484;2023-10-09T03:19:48;-17605.13;;;15.93;100.00
15193;BME280;7697;51.630;7.484;2023-10-09T03:24:50;-17608.13;;;16.02;100.00
15193;BME280;7697;51.630;7.484;2023-10-09T03:29:54;-17612.50;;;16.16;100.00
15193;BME280;7697;51.630;7.484;2023-10-09T03:34:57;-17615.19;;;16.24;100.00
15193;BME280;7697;51.630;7.484;2023-10-09T03:40:00;-17616.69;;;16.28;100.00
15193;BME280;7697;51.630;7.484;2023-10-09T03:45:05;-17618.88;;;16.35;100.00
15193;BME280;7697;51.630;7.484;2023-10-09T03:50:13;-17621.41;;;16.42;100.00
15193;BME280;7697;51.630;7.484;2023-10-09T03:55:26;-17622.56;;;16.46;100.00
15193;BME280;7697;51.630;7.484;2023-10-09T04:00:31;-17621.91;;;16.44;100.00
15193;BME280;7697;51.630;7.484;2023-10-09T04:05:41;-17624.41;;;16.51;100.00
15193;BME280;7697;51.630;7.484;2023-10-09T04:10:43;-17624.25;;;16.51;100.00
15193;BME280;7697;51.630;7.484;2023-10-09T04:15:52;-17625.41;;;16.55;100.00
15193;BME280;7697;51.630;7.484;2023-10-09T04:20:55;-17626.25;;;16.57;100.00
15193;BME280;7697;51.630;7.484;2023-10-09T04:26:13;-17626.25;;;16.57;100.00
15193;BME280;7697;51.630;7.484;2023-10-09T04:31:16;-17625.09;;;16.54;100.00
15193;BME280;7697;51.630;7.484;2023-10-09T04:36:19;-17626.94;;;16.59;100.00
15193;BME280;7697;51.630;7.484;2023-10-09T04:41:29;-17628.78;;;16.65;100.00
15193;BME280;7697;51.630;7.484;2023-10-09T04:46:34;-17627.78;;;16.62;100.00
15193;BME280;7697;51.630;7.484;2023-10-09T04:51:44;-17628.13;;;16.63;100.00
15193;BME280;7697;51.630;7.484;2023-10-09T04:57:03;-17629.44;;;16.67;100.00
15193;BME280;7697;51.630;7.484;2023-10-09T05:02:15;-17630.13;;;16.69;100.00
15193;BME280;7697;51.630;7.484;2023-10-09T05:07:19;-17631.31;;;16.72;100.00
15193;BME280;7697;51.630;7.484;2023-10-09T05:12:47;-17631.81;;;16.74;100.00
15193;BME280;7697;51.630;7.484;2023-10-09T05:17:58;-17632.31;;;16.75;100.00
15193;BME280;7697;51.630;7.484;2023-10-09T05:23:09;-17632.13;;;16.75;100.00
15193;BME280;7697;51.630;7.484;2023-10-09T05:28:26;-17631.47;;;16.73;100.00
15193;BME280;7697;51.630;7.484;2023-10-09T05:33:50;-17632.13;;;16.75;100.00
15193;BME280;7697;51.630;7.484;2023-10-09T05:38:53;-17632.81;;;16.77;100.00
15193;BME280;7697;51.630;7.484;2023-10-09T05:44:17;-17633.31;;;16.78;100.00
15193;BME280;7697;51.630;7.484;2023-10-09T05:49:38;-17632.97;;;16.77;100.00
15193;BME280;7697;51.630;7.484;2023-10-09T05:54:47;-17634.16;;;16.81;100.00
15193;BME280;7697;51.630;7.484;2023-10-09T06:00:07;-17634.00;;;16.80;100.00
15193;BME280;7697;51.630;7.484;2023-10-09T06:05:29;-17634.81;;;16.83;100.00
15193;BME280;7697;51.630;7.484;2023-10-09T06:10:52;-17634.81;;;16.83;100.00
15193;BME280;7697;51.630;7.484;2023-10-09T06:16:07;-17634.31;;;16.81;100.00
15193;BME280;7697;51.630;7.484;2023-10-09T06:21:34;-17636.84;;;16.89;100.00
15193;BME280;7697;51.630;7.484;2023-10-09T06:27:01;-17637.84;;;16.92;100.00
15193;BME280;7697;51.630;7.484;2023-10-09T06:32:24;-17638.69;;;16.95;100.00
15193;BME280;7697;51.630;7.484;2023-10-09T06:37:44;-17639.34;;;16.97;100.00
15193;BME280;7697;51.630;7.484;2023-10-09T06:43:04;-17642.03;;;17.05;100.00
15193;BME280;7697;51.630;7.484;2023-10-09T06:48:10;-17643.88;;;17.10;100.00
15193;BME280;7697;51.630;7.484;2023-10-09T06:53:27;-17645.56;;;17.15;100.00
15193;BME280;7697;51.630;7.484;2023-10-09T06:58:49;-17644.72;;;17.13;100.00
15193;BME280;7697;51.630;7.484;2023-10-09T07:03:55;-17647.25;;;17.20;100.00
15193;BME280;7697;51.630;7.484;2023-10-09T07:09:12;-17648.75;;;17.25;100.00
15193;BME280;7697;51.630;7.484;2023-10-09T07:14:20;-17651.59;;;17.34;100.00
15193;BME280;7697;51.630;7.484;2023-10-09T07:19:54;-17650.59;;;17.31;100.00
15193;BME280;7697;51.630;7.484;2023-10-09T07:25:15;-17652.28;;;17.36;100.00
15193;BME280;7697;51.630;7.484;2023-10-09T07:30:28;-17653.94;;;17.41;100.00
15193;BME280;7697;51.630;7.484;2023-10-09T07:35:40;-17655.13;;;17.44;100.00
15193;BME280;7697;51.630;7.484;2023-10-09T07:40:51;-17657.13;;;17.50;100.00
15193;BME280;7697;51.630;7.484;2023-10-09T07:46:01;-17659.50;;;17.57;100.00
15193;BME280;7697;51.630;7.484;2023-10-09T07:51:21;-17660.66;;;17.61;100.00
15193;BME280;7697;51.630;7.484;2023-10-09T07:56:25;-17661.00;;;17.62;100.00
15193;BME280;7697;51.630;7.484;2023-10-09T08:01:30;-17661.34;;;17.63;100.00
15193;BME280;7697;51.630;7.484;2023-10-09T08:06:38;-17661.84;;;17.65;100.00
15193;BME280;7697;51.630;7.484;2023-10-09T08:11:42;-17663.53;;;17.70;100.00
15193;BME280;7697;51.630;7.484;2023-10-09T08:16:58;-17663.69;;;17.70;100.00
15193;BME280;7697;51.630;7.484;2023-10-09T08:22:12;-17664.69;;;17.73;100.00
15193;BME280;7697;51.630;7.484;2023-10-09T08:27:44;-17664.69;;;17.73;100.00
15193;BME280;7697;51.630;7.484;2023-10-09T08:32:54;-17666.38;;;17.78;100.00
15193;BME280;7697;51.630;7.484;2023-10-09T08:38:03;-17667.38;;;17.81;100.00
15193;BME280;7697;51.630;7.484;2023-10-09T08:43:14;-17670.41;;;17.90;100.00
15193;BME280;7697;51.630;7.484;2023-10-09T08:48:16;-17671.41;;;17.93;100.00
15193;BME280;7697;51.630;7.484;2023-10-09T08:53:18;-17674.44;;;18.03;100.00
15193;BME280;7697;51.630;7.484;2023-10-09T09:04:38;-17672.09;;;17.95;100.00
15193;BME280;7697;51.630;7.484;2023-10-09T09:09:54;-17673.41;;;17.99;100.00
15193;BME280;7697;51.630;7.484;2023-10-09T09:14:57;-17676.44;;;18.09;100.00
15193;BME280;7697;51.630;7.484;2023-10-09T09:20:19;-17680.31;;;18.20;100.00
15193;BME280;7697;51.630;7.484;2023-10-09T09:25:23;-17682.81;;;18.28;100.00
15193;BME280;7697;51.630;7.484;2023-10-09T09:30:31;-17688.34;;;18.45;99.88
15193;BME280;7697;51.630;7.484;2023-10-09T09:35:35;-17693.91;;;18.61;99.71
15193;BME280;7697;51.630;7.484;2023-10-09T09:40:37;-17698.25;;;18.74;98.74
15193;BME280;7697;51.630;7.484;2023-10-09T09:45:41;-17701.63;;;18.85;98.33
15193;BME280;7697;51.630;7.484;2023-10-09T09:50:52;-17705.63;;;18.97;98.19
15193;BME280;7697;51.630;7.484;2023-10-09T09:55:54;-17707.31;;;19.02;98.09
15193;BME280;7697;51.630;7.484;2023-10-09T10:01:01;-17710.34;;;19.11;97.78
15193;BME280;7697;51.630;7.484;2023-10-09T10:06:10;-17713.69;;;19.21;97.48
15193;BME280;7697;51.630;7.484;2023-10-09T10:11:41;-17718.06;;;19.34;97.30
15193;BME280;7697;51.630;7.484;2023-10-09T10:16:59;-17720.75;;;19.42;96.54
15193;BME280;7697;51.630;7.484;2023-10-09T10:22:23;-17724.09;;;19.53;96.48
15193;BME280;7697;51.630;7.484;2023-10-09T10:27:27;-17729.31;;;19.68;95.43
15193;BME280;7697;51.630;7.484;2023-10-09T10:32:53;-17730.16;;;19.71;94.94
15193;BME280;7697;51.630;7.484;2023-10-09T10:37:58;-17728.47;;;19.66;95.01
15193;BME280;7697;51.630;7.484;2023-10-09T10:43:15;-17732.84;;;19.79;95.28
15193;BME280;7697;51.630;7.484;2023-10-09T10:48:34;-17733.50;;;19.81;94.32
15193;BME280;7697;51.630;7.484;2023-10-09T10:53:50;-17736.69;;;19.91;94.11
15193;BME280;7697;51.630;7.484;2023-10-09T10:58:58;-17740.56;;;20.02;93.98
15193;BME280;7697;51.630;7.484;2023-10-09T11:04:13;-17768.41;;;20.86;91.15
15193;BME280;7697;51.630;7.484;2023-10-09T11:09:26;-17762.03;;;20.67;91.58
15193;BME280;7697;51.630;7.484;2023-10-09T11:14:44;-17754.47;;;20.44;92.34
15193;BME280;7697;51.630;7.484;2023-10-09T11:20:06;-17754.66;;;20.45;93.05
15193;BME280;7697;51.630;7.484;2023-10-09T11:25:27;-17756.31;;;20.50;92.28
15193;BME280;7697;51.630;7.484;2023-10-09T11:30:31;-17760.03;;;20.61;92.03
15193;BME280;7697;51.630;7.484;2023-10-09T11:35:35;-17762.03;;;20.67;92.12
15193;BME280;7697;51.630;7.484;2023-10-09T11:40:39;-17762.69;;;20.69;91.32
15193;BME280;7697;51.630;7.484;2023-10-09T11:46:08;-17764.22;;;20.74;91.75
15193;BME280;7697;51.630;7.484;2023-10-09T11:51:12;-17766.22;;;20.80;91.56
15193;BME280;7697;51.630;7.484;2023-10-09T11:56:23;-17769.06;;;20.88;91.53
15193;BME280;7697;51.630;7.484;2023-10-09T12:01:27;-17766.72;;;20.81;91.01
15193;BME280;7697;51.630;7.484;2023-10-09T12:06:35;-17767.06;;;20.82;91.13
15193;BME280;7697;51.630;7.484;2023-10-09T12:11:38;-17767.91;;;20.85;90.73
15193;BME280;7697;51.630;7.484;2023-10-09T12:16:40;-17768.25;;;20.86;90.63
15193;BME280;7697;51.630;7.484;2023-10-09T12:21:52;-17771.25;;;20.95;90.36
15193;BME280;7697;51.630;7.484;2023-10-09T12:26:55;-17773.09;;;21.01;90.04
15193;BME280;7697;51.630;7.484;2023-10-09T12:31:57;-17773.28;;;21.01;90.62
15193;BME280;7697;51.630;7.484;2023-10-09T12:36:59;-17773.09;;;21.01;90.32
15193;BME280;7697;51.630;7.484;2023-10-09T12:42:03;-17772.09;;;20.97;90.28
15193;BME280;7697;51.630;7.484;2023-10-09T12:47:08;-17773.44;;;21.02;90.29
15193;BME280;7697;51.630;7.484;2023-10-09T12:52:11;-17775.13;;;21.07;90.55
15193;BME280;7697;51.630;7.484;2023-10-09T12:57:17;-17775.97;;;21.09;90.59
15193;BME280;7697;51.630;7.484;2023-10-09T13:02:19;-17774.94;;;21.06;90.77
15193;BME280;7697;51.630;7.484;2023-10-09T13:07:29;-17774.94;;;21.06;90.53
15193;BME280;7697;51.630;7.484;2023-10-09T13:12:33;-17776.78;;;21.12;90.37
15193;BME280;7697;51.630;7.484;2023-10-09T13:17:38;-17777.31;;;21.13;90.03
15193;BME280;7697;51.630;7.484;2023-10-09T13:22:42;-17777.47;;;21.14;89.25
15193;BME280;7697;51.630;7.484;2023-10-09T13:27:46;-17777.81;;;21.15;89.23
15193;BME280;7697;51.630;7.484;2023-10-09T13:32:50;-17775.47;;;21.08;89.18
15193;BME280;7697;51.630;7.484;2023-10-09T13:37:52;-17775.28;;;21.07;89.57
15193;BME280;7697;51.630;7.484;2023-10-09T13:42:56;-17775.28;;;21.07;88.88
15193;BME280;7697;51.630;7.484;2023-10-09T13:47:59;-17772.28;;;20.98;89.15
15193;BME280;7697;51.630;7.484;2023-10-09T13:53:03;-17772.09;;;20.97;89.21
15193;BME280;7697;51.630;7.484;2023-10-09T13:58:16;-17774.44;;;21.05;89.57
15193;BME280;7697;51.630;7.484;2023-10-09T14:03:21;-17774.78;;;21.06;90.05
15193;BME280;7697;51.630;7.484;2023-10-09T14:08:26;-17774.94;;;21.06;89.88
15193;BME280;7697;51.630;7.484;2023-10-09T14:13:30;-17776.78;;;21.12;90.05
15193;BME280;7697;51.630;7.484;2023-10-09T14:18:33;-17775.13;;;21.07;89.80
15193;BME280;7697;51.630;7.484;2023-10-09T14:23:35;-17775.13;;;21.07;89.40
15193;BME280;7697;51.630;7.484;2023-10-09T14:28:38;-17775.13;;;21.07;90.11
15193;BME280;7697;51.630;7.484;2023-10-09T14:33:43;-17773.94;;;21.03;90.33
15193;BME280;7697;51.630;7.484;2023-10-09T14:38:51;-17774.44;;;21.05;90.30
15193;BME280;7697;51.630;7.484;2023-10-09T14:43:56;-17785.88;;;21.39;88.84
15193;BME280;7697;51.630;7.484;2023-10-09T14:48:59;-17792.75;;;21.60;87.54
15193;BME280;7697;51.630;7.484;2023-10-09T14:54:01;-17772.44;;;20.98;90.14
15193;BME280;7697;51.630;7.484;2023-10-09T14:59:04;-17768.25;;;20.86;90.74
15193;BME280;7697;51.630;7.484;2023-10-09T15:04:07;-17775.97;;;21.09;90.39
15193;BME280;7697;51.630;7.484;2023-10-09T15:09:15;-17767.91;;;20.85;90.72
15193;BME280;7697;51.630;7.484;2023-10-09T15:14:24;-17776.13;;;21.10;89.76
15193;BME280;7697;51.630;7.484;2023-10-09T15:19:25;-17786.88;;;21.42;89.00
15193;BME280;7697;51.630;7.484;2023-10-09T15:24:29;-17771.44;;;20.95;90.89
15193;BME280;7697;51.630;7.484;2023-10-09T15:29:33;-17766.41;;;20.80;91.24
15193;BME280;7697;51.630;7.484;2023-10-09T15:34:37;-17764.72;;;20.75;91.89
15193;BME280;7697;51.630;7.484;2023-10-09T15:39:39;-17764.56;;;20.75;91.55
15193;BME280;7697;51.630;7.484;2023-10-09T15:44:42;-17764.22;;;20.74;91.59
15193;BME280;7697;51.630;7.484;2023-10-09T15:49:48;-17762.38;;;20.68;91.92
15193;BME280;7697;51.630;7.484;2023-10-09T15:54:54;-17762.69;;;20.69;92.08
15193;BME280;7697;51.630;7.484;2023-10-09T15:59:57;-17762.19;;;20.68;92.30
15193;BME280;7697;51.630;7.484;2023-10-09T16:05:01;-17761.69;;;20.66;92.51
15193;BME280;7697;51.630;7.484;2023-10-09T16:10:07;-17760.34;;;20.62;92.39
15193;BME280;7697;51.630;7.484;2023-10-09T16:15:11;-17757.84;;;20.54;92.64
15193;BME280;7697;51.630;7.484;2023-10-09T16:20:14;-17758.00;;;20.55;92.65
15193;BME280;7697;51.630;7.484;2023-10-09T16:25:21;-17757.50;;;20.53;92.79
15193;BME280;7697;51.630;7.484;2023-10-09T16:30:25;-17757.16;;;20.52;92.98
15193;BME280;7697;51.630;7.484;2023-10-09T16:35:28;-17757.34;;;20.53;92.73
15193;BME280;7697;51.630;7.484;2023-10-09T16:40:30;-17755.00;;;20.46;93.18
15193;BME280;7697;51.630;7.484;2023-10-09T16:45:35;-17755.31;;;20.47;93.08
15193;BME280;7697;51.630;7.484;2023-10-09T16:50:43;-17752.63;;;20.39;93.43
15193;BME280;7697;51.630;7.484;2023-10-09T16:55:47;-17750.44;;;20.32;93.62
15193;BME280;7697;51.630;7.484;2023-10-09T17:00:51;-17751.63;;;20.36;93.70
15193;BME280;7697;51.630;7.484;2023-10-09T17:05:56;-17749.94;;;20.31;93.71
15193;BME280;7697;51.630;7.484;2023-10-09T17:10:58;-17748.59;;;20.27;93.60
15193;BME280;7697;51.630;7.484;2023-10-09T17:16:01;-17747.25;;;20.22;93.83
15193;BME280;7697;51.630;7.484;2023-10-09T17:21:03;-17747.09;;;20.22;94.30
15193;BME280;7697;51.630;7.484;2023-10-09T17:26:12;-17747.25;;;20.22;94.39
15193;BME280;7697;51.630;7.484;2023-10-09T17:31:16;-17746.94;;;20.21;94.42
15193;BME280;7697;51.630;7.484;2023-10-09T17:36:20;-17746.94;;;20.21;94.52
15193;BME280;7697;51.630;7.484;2023-10-09T17:41:22;-17746.25;;;20.19;94.99
15193;BME280;7697;51.630;7.484;2023-10-09T17:46:25;-17744.56;;;20.14;95.10
15193;BME280;7697;51.630;7.484;2023-10-09T17:51:27;-17743.56;;;20.11;95.19
15193;BME280;7697;51.630;7.484;2023-10-09T17:56:28;-17741.72;;;20.06;95.31
15193;BME280;7697;51.630;7.484;2023-10-09T18:01:31;-17739.03;;;19.98;95.43
15193;BME280;7697;51.630;7.484;2023-10-09T18:06:33;-17736.84;;;19.91;95.77
15193;BME280;7697;51.630;7.484;2023-10-09T18:11:37;-17735.69;;;19.88;95.95
15193;BME280;7697;51.630;7.484;2023-10-09T18:16:41;-17735.34;;;19.86;95.66
15193;BME280;7697;51.630;7.484;2023-10-09T18:21:43;-17733.84;;;19.82;96.00
15193;BME280;7697;51.630;7.484;2023-10-09T18:26:46;-17731.81;;;19.76;96.31
15193;BME280;7697;51.630;7.484;2023-10-09T18:31:49;-17728.97;;;19.67;96.61
15193;BME280;7697;51.630;7.484;2023-10-09T18:36:51;-17727.28;;;19.62;96.79
15193;BME280;7697;51.630;7.484;2023-10-09T18:41:53;-17726.44;;;19.60;97.03
15193;BME280;7697;51.630;7.484;2023-10-09T18:46:58;-17725.97;;;19.58;96.85
15193;BME280;7697;51.630;7.484;2023-10-09T18:52:00;-17724.28;;;19.53;96.93
15193;BME280;7697;51.630;7.484;2023-10-09T18:57:02;-17723.28;;;19.50;97.29
15193;BME280;7697;51.630;7.484;2023-10-09T19:02:05;-17723.09;;;19.50;97.36
15193;BME280;7697;51.630;7.484;2023-10-09T19:07:11;-17721.06;;;19.43;97.68
15193;BME280;7697;51.630;7.484;2023-10-09T19:12:14;-17721.41;;;19.44;98.02
15193;BME280;7697;51.630;7.484;2023-10-09T19:17:17;-17719.75;;;19.39;97.61
15193;BME280;7697;51.630;7.484;2023-10-09T19:22:19;-17720.75;;;19.42;97.65
15193;BME280;7697;51.630;7.484;2023-10-09T19:27:21;-17718.91;;;19.37;97.97
15193;BME280;7697;51.630;7.484;2023-10-09T19:32:27;-17717.22;;;19.32;97.94
15193;BME280;7697;51.630;7.484;2023-10-09T19:37:30;-17715.22;;;19.26;97.96
15193;BME280;7697;51.630;7.484;2023-10-09T19:42:32;-17712.19;;;19.17;98.33
15193;BME280;7697;51.630;7.484;2023-10-09T19:47:36;-17711.53;;;19.15;98.37
15193;BME280;7697;51.630;7.484;2023-10-09T19:52:40;-17708.66;;;19.06;98.57
15193;BME280;7697;51.630;7.484;2023-10-09T19:57:42;-17707.31;;;19.02;98.95
15193;BME280;7697;51.630;7.484;2023-10-09T20:02:45;-17705.47;;;18.96;98.97
15193;BME280;7697;51.630;7.484;2023-10-09T20:07:47;-17704.81;;;18.94;99.17
15193;BME280;7697;51.630;7.484;2023-10-09T20:12:49;-17703.63;;;18.91;99.09
15193;BME280;7697;51.630;7.484;2023-10-09T20:17:52;-17701.28;;;18.84;99.17
15193;BME280;7697;51.630;7.484;2023-10-09T20:22:54;-17699.09;;;18.77;99.47
15193;BME280;7697;51.630;7.484;2023-10-09T20:27:56;-17698.59;;;18.76;99.51
15193;BME280;7697;51.630;7.484;2023-10-09T20:32:59;-17697.09;;;18.71;99.38
15193;BME280;7697;51.630;7.484;2023-10-09T20:38:01;-17693.72;;;18.61;99.94
15193;BME280;7697;51.630;7.484;2023-10-09T20:43:03;-17693.91;;;18.61;99.80
15193;BME280;7697;51.630;7.484;2023-10-09T20:48:06;-17691.88;;;18.55;99.88
15193;BME280;7697;51.630;7.484;2023-10-09T20:53:08;-17689.69;;;18.49;100.00
15193;BME280;7697;51.630;7.484;2023-10-09T20:58:10;-17689.38;;;18.48;100.00
15193;BME280;7697;51.630;7.484;2023-10-09T21:03:13;-17688.19;;;18.44;100.00
15193;BME280;7697;51.630;7.484;2023-10-09T21:08:16;-17688.19;;;18.44;100.00
15193;BME280;7697;51.630;7.484;2023-10-09T21:13:17;-17688.19;;;18.44;100.00
15193;BME280;7697;51.630;7.484;2023-10-09T21:18:21;-17687.84;;;18.43;100.00
15193;BME280;7697;51.630;7.484;2023-10-09T21:23:23;-17687.34;;;18.42;100.00
15193;BME280;7697;51.630;7.484;2023-10-09T21:28:25;-17687.84;;;18.43;100.00
15193;BME280;7697;51.630;7.484;2023-10-09T21:33:28;-17689.19;;;18.47;100.00
15193;BME280;7697;51.630;7.484;2023-10-09T21:38:31;-17688.69;;;18.46;100.00
15193;BME280;7697;51.630;7.484;2023-10-09T21:43:33;-17688.53;;;18.45;100.00
15193;BME280;7697;51.630;7.484;2023-10-09T21:48:37;-17687.19;;;18.41;100.00
15193;BME280;7697;51.630;7.484;2023-10-09T21:53:39;-17687.53;;;18.42;100.00
15193;BME280;7697;51.630;7.484;2023-10-09T21:58:41;-17686.84;;;18.40;100.00
15193;BME280;7697;51.630;7.484;2023-10-09T22:03:45;-17687.84;;;18.43;100.00
15193;BME280;7697;51.630;7.484;2023-10-09T22:08:48;-17687.69;;;18.43;100.00
15193;BME280;7697;51.630;7.484;2023-10-09T22:13:50;-17686.50;;;18.39;100.00
15193;BME280;7697;51.630;7.484;2023-10-09T22:18:53;-17687.69;;;18.43;100.00
15193;BME280;7697;51.630;7.484;2023-10-09T22:23:55;-17687.53;;;18.42;100.00
15193;BME280;7697;51.630;7.484;2023-10-09T22:28:58;-17687.19;;;18.41;100.00
15193;BME280;7697;51.630;7.484;2023-10-09T22:34:03;-17686.50;;;18.39;100.00
15193;BME280;7697;51.630;7.484;2023-10-09T22:39:11;-17684.84;;;18.34;100.00
15193;BME280;7697;51.630;7.484;2023-10-09T22:44:20;-17684.50;;;18.33;100.00
15193;BME280;7697;51.630;7.484;2023-10-09T22:49:24;-17684.16;;;18.32;100.00
15193;BME280;7697;51.630;7.484;2023-10-09T22:54:32;-17684.84;;;18.34;100.00
15193;BME280;7697;51.630;7.484;2023-10-09T22:59:35;-17684.16;;;18.32;100.00
15193;BME280;7697;51.630;7.484;2023-10-09T23:04:45;-17682.47;;;18.27;100.00
15193;BME280;7697;51.630;7.484;2023-10-09T23:09:49;-17680.63;;;18.21;100.00
15193;BME280;7697;51.630;7.484;2023-10-09T23:14:51;-17679.78;;;18.19;100.00
15193;BME280;7697;51.630;7.484;2023-10-09T23:19:55;-17679.47;;;18.18;100.00
15193;BME280;7697;51.630;7.484;2023-10-09T23:24:57;-17678.47;;;18.15;100.00
15193;BME280;7697;51.630;7.484;2023-10-09T23:30:10;-17678.13;;;18.14;100.00
15193;BME280;7697;51.630;7.484;2023-10-09T23:35:17;-17678.13;;;18.14;100.00
15193;BME280;7697;51.630;7.484;2023-10-09T23:40:20;-17676.78;;;18.10;100.00
15193;BME280;7697;51.630;7.484;2023-10-09T23:45:38;-17675.78;;;18.07;100.00
15193;BME280;7697;51.630;7.484;2023-10-09T23:50:42;-17676.78;;;18.10;100.00
15193;BME280;7697;51.630;7.484;2023-10-09T23:55:48;-17673.94;;;18.01;100.00
